Time;durP1;ratioP1;P1;durP2;ratioP2;P2;SDS_P1;SDS_P2;PMS_P1;PMS_P2;Temp;Humidity;BMP_temperature;BMP_pressure;BME280_temperature;BME280_humidity;BME280_pressure;Samples;Min_cycle;Max_cycle;Signal;HPM_P1;HPM_P2
2022/12/24 00:00:55;;;;;;;6.37;3.00;;;;;;;5.55;100.00;99783.31;6055010;28;20407;-74
2022/12/24 00:03:50;;;;;;;6.88;3.30;;;;;;;5.60;100.00;99786.38;6055170;28;20048;-75
2022/12/24 00:06:46;;;;;;;7.87;2.70;;;;;;;5.65;100.00;99789.41;6055365;28;20033;-76
2022/12/24 00:09:41;;;;;;;6.90;2.90;;;;;;;5.58;100.00;99778.59;6055293;28;20446;-75
2022/12/24 00:12:37;;;;;;;6.13;2.60;;;;;;;5.73;100.00;99806.19;6054281;28;20084;-76
2022/12/24 00:15:32;;;;;;;5.70;2.88;;;;;;;5.57;100.00;99781.38;6054780;28;20405;-74
2022/12/24 00:18:27;;;;;;;5.43;2.67;;;;;;;5.66;100.00;99794.53;6054861;28;20038;-75
2022/12/24 00:21:23;;;;;;;6.20;3.35;;;;;;;5.63;100.00;99797.44;6058063;28;20391;-75
2022/12/24 00:24:18;;;;;;;8.10;3.20;;;;;;;5.47;100.00;99776.09;6054317;28;20038;-77
2022/12/24 00:27:13;;;;;;;7.33;2.40;;;;;;;5.48;100.00;99772.53;6053452;28;20040;-74
2022/12/24 00:30:09;;;;;;;8.63;2.90;;;;;;;5.53;100.00;99786.06;6058634;28;20033;-73
2022/12/24 00:33:04;;;;;;;6.93;2.90;;;;;;;5.54;100.00;99787.75;6060473;28;20037;-74
2022/12/24 00:36:00;;;;;;;6.50;3.00;;;;;;;5.45;100.00;99783.31;6063047;28;20030;-75
2022/12/24 00:38:55;;;;;;;7.10;3.10;;;;;;;5.45;100.00;99779.84;6060624;28;20046;-77
2022/12/24 00:41:50;;;;;;;7.80;3.50;;;;;;;5.46;100.00;99811.25;6057665;28;20046;-76
2022/12/24 00:44:45;;;;;;;5.80;2.83;;;;;;;5.36;100.00;99794.63;6060979;28;20061;-76
2022/12/24 00:47:41;;;;;;;7.53;3.17;;;;;;;5.31;100.00;99775.81;6058690;28;20038;-74
2022/12/24 00:50:36;;;;;;;6.35;2.72;;;;;;;5.34;100.00;99780.78;6053974;28;20096;-76
2022/12/24 00:53:31;;;;;;;7.43;3.27;;;;;;;5.32;100.00;99798.50;6054307;28;20556;-73
2022/12/24 00:56:27;;;;;;;6.80;3.00;;;;;;;5.28;100.00;99803.19;6057641;28;20030;-73
2022/12/24 00:59:22;;;;;;;7.97;3.90;;;;;;;5.34;100.00;99809.72;6055896;28;20034;-77
2022/12/24 01:02:17;;;;;;;8.00;3.13;;;;;;;5.29;100.00;99818.00;6053836;28;20038;-76
2022/12/24 01:05:12;;;;;;;8.93;3.43;;;;;;;5.31;100.00;99812.59;6054133;28;20034;-73
2022/12/24 01:08:08;;;;;;;7.23;3.00;;;;;;;5.33;100.00;99808.03;6054249;28;20034;-75
2022/12/24 01:11:05;;;;;;;9.00;3.67;;;;;;;5.30;100.00;99811.75;6052202;28;20390;-78
2022/12/24 01:14:00;;;;;;;6.53;2.95;;;;;;;5.28;100.00;99812.88;6052268;28;20038;-74
2022/12/24 01:16:56;;;;;;;8.00;3.00;;;;;;;5.34;100.00;99849.13;6051885;28;20040;-74
2022/12/24 01:19:51;;;;;;;7.00;3.17;;;;;;;5.32;100.00;99846.66;6053101;28;20041;-77
2022/12/24 01:22:47;;;;;;;8.13;3.90;;;;;;;5.29;100.00;99831.16;6050099;28;20284;-75
2022/12/24 01:25:43;;;;;;;7.40;3.35;;;;;;;5.28;100.00;99839.16;6034543;28;20033;-78
2022/12/24 01:28:38;;;;;;;9.07;4.17;;;;;;;5.26;100.00;99849.81;6060756;28;20242;-75
2022/12/24 01:31:33;;;;;;;6.90;3.22;;;;;;;5.29;100.00;99846.91;6055643;28;20049;-72
2022/12/24 01:34:29;;;;;;;7.80;3.60;;;;;;;5.09;100.00;99831.19;6056506;28;20034;-77
2022/12/24 01:37:24;;;;;;;8.57;4.00;;;;;;;5.10;100.00;99820.56;6056852;28;20555;-78
2022/12/24 01:43:33;;;;;;;7.95;4.03;;;;;;;5.17;100.00;99834.84;6054708;28;20033;-76
2022/12/24 01:46:30;;;;;;;10.63;5.00;;;;;;;5.21;100.00;99859.06;6054755;28;20034;-75
2022/12/24 01:49:25;;;;;;;9.35;4.03;;;;;;;5.26;100.00;99857.69;6036754;28;20030;-74
2022/12/24 01:52:30;;;;;;;9.43;4.32;;;;;;;5.23;100.00;99851.88;6052259;28;20038;-75
2022/12/24 01:55:25;;;;;;;11.60;4.57;;;;;;;5.23;100.00;99854.50;6053506;28;20029;-73
2022/12/24 01:58:21;;;;;;;6.75;3.72;;;;;;;5.28;100.00;99865.44;6050689;28;20537;-76
2022/12/24 02:01:17;;;;;;;11.25;4.78;;;;;;;5.29;100.00;99856.59;6052627;28;20045;-73
2022/12/24 02:04:18;;;;;;;7.53;3.57;;;;;;;5.33;100.00;99871.94;6052055;28;20030;-74
2022/12/24 02:07:14;;;;;;;7.47;3.33;;;;;;;5.40;100.00;99874.88;6051841;28;20050;-74
2022/12/24 02:10:11;;;;;;;8.27;3.80;;;;;;;5.28;100.00;99860.16;6052815;28;20048;-76
2022/12/24 02:13:07;;;;;;;8.88;3.50;;;;;;;5.36;100.00;99869.06;6052768;28;20026;-76
2022/12/24 02:16:25;;;;;;;9.45;3.90;;;;;;;5.37;100.00;99880.41;6050067;28;20058;-75
2022/12/24 02:19:51;;;;;;;8.30;3.47;;;;;;;5.29;100.00;99872.38;6049589;28;20054;-76
2022/12/24 02:23:02;;;;;;;10.55;4.78;;;;;;;5.26;100.00;99868.22;6050776;28;20042;-77
2022/12/24 02:26:19;;;;;;;10.80;4.05;;;;;;;5.31;100.00;99880.94;6051446;28;20052;-76
2022/12/24 02:29:32;;;;;;;11.20;4.68;;;;;;;5.31;100.00;99880.94;6055903;28;20056;-76
2022/12/24 02:32:35;;;;;;;10.82;4.50;;;;;;;5.35;100.00;99892.88;6054145;28;20026;-77
2022/12/24 02:35:48;;;;;;;9.40;4.65;;;;;;;5.35;100.00;99892.88;6042048;28;20046;-78
2022/12/24 02:38:48;;;;;;;12.32;4.60;;;;;;;5.30;100.00;99885.34;6040268;28;20117;-75
2022/12/24 02:42:05;;;;;;;11.88;4.05;;;;;;;5.33;100.00;99900.88;6059692;28;20463;-76
2022/12/24 02:45:08;;;;;;;10.82;5.00;;;;;;;5.28;100.00;99891.72;6054808;28;20034;-76
2022/12/24 02:48:04;;;;;;;11.85;5.25;;;;;;;5.28;100.00;99882.03;6032732;28;20026;-79
2022/12/24 02:51:08;;;;;;;12.20;5.47;;;;;;;5.37;100.00;99897.03;6040430;28;20037;-78
2022/12/24 02:54:03;;;;;;;11.20;3.88;;;;;;;5.33;100.00;99887.72;6050900;28;20038;-76
2022/12/24 02:57:13;;;;;;;8.85;4.38;;;;;;;5.29;100.00;99882.88;6035680;28;20040;-78
2022/12/24 03:00:12;;;;;;;13.85;5.53;;;;;;;5.32;100.00;99888.72;6072530;28;20034;-76
2022/12/24 03:03:27;;;;;;;12.32;5.25;;;;;;;5.33;100.00;99892.97;6053673;28;20029;-75
2022/12/24 03:06:38;;;;;;;15.80;5.32;;;;;;;5.34;100.00;99893.81;6036034;28;20045;-77
2022/12/24 03:09:50;;;;;;;13.80;5.85;;;;;;;5.34;100.00;99899.91;6053494;28;20029;-75
2022/12/24 03:12:51;;;;;;;14.43;5.60;;;;;;;5.48;100.00;99914.50;6048589;28;20038;-76
2022/12/24 03:15:47;;;;;;;12.90;5.30;;;;;;;5.30;100.00;99890.63;6053750;28;20544;-77
2022/12/24 03:18:45;;;;;;;12.15;4.88;;;;;;;5.45;100.00;99909.50;6054972;28;20045;-77
2022/12/24 03:21:41;;;;;;;13.27;6.05;;;;;;;5.48;100.00;99903.97;6054888;28;20034;-77
2022/12/24 03:24:37;;;;;;;11.85;5.13;;;;;;;5.60;100.00;99916.03;6025254;28;20041;-79
2022/12/24 03:27:33;;;;;;;11.40;4.38;;;;;;;5.50;100.00;99909.09;6053361;28;20454;-75
2022/12/24 03:30:29;;;;;;;14.65;5.03;;;;;;;5.58;100.00;99910.09;6057286;28;20026;-77
2022/12/24 03:33:25;;;;;;;8.70;4.45;;;;;;;5.78;100.00;99922.34;6060504;28;20049;-75
2022/12/24 03:36:20;;;;;;;10.05;4.32;;;;;;;5.82;100.00;99901.81;6049602;28;20120;-78
2022/12/24 03:39:15;;;;;;;11.20;4.17;;;;;;;6.08;100.00;99931.13;6053671;28;20048;-78
2022/12/24 03:42:11;;;;;;;10.97;3.53;;;;;;;6.21;100.00;99915.91;6052870;28;20038;-75
2022/12/24 03:45:07;;;;;;;7.33;2.53;;;;;;;6.69;100.00;99929.03;6053849;28;20116;-75
2022/12/24 03:48:02;;;;;;;13.52;2.97;;;;;;;7.11;100.00;99915.38;6052349;28;20034;-73
2022/12/24 03:50:58;;;;;;;8.80;2.90;;;;;;;7.48;100.00;99932.97;6052924;28;20021;-74
2022/12/24 03:53:54;;;;;;;15.43;2.87;;;;;;;7.66;100.00;99920.69;6053005;28;20029;-77
2022/12/24 03:56:50;;;;;;;13.88;2.53;;;;;;;7.84;100.00;99932.13;6053175;28;20489;-74
2022/12/24 03:59:45;;;;;;;13.77;2.57;;;;;;;7.88;100.00;99933.47;6053502;28;20038;-76
2022/12/24 04:02:40;;;;;;;10.83;2.30;;;;;;;7.93;100.00;99943.59;6052134;28;20044;-74
2022/12/24 04:05:35;;;;;;;15.17;2.47;;;;;;;7.94;100.00;99940.78;6053071;28;20479;-75
2022/12/24 04:08:31;;;;;;;8.77;2.67;;;;;;;7.96;100.00;99952.06;6053177;28;20367;-76
2022/12/24 04:11:26;;;;;;;10.13;2.22;;;;;;;7.98;100.00;99947.47;6053031;28;20394;-75
2022/12/24 04:14:22;;;;;;;10.40;2.37;;;;;;;7.95;100.00;99949.56;6052268;28;20387;-76
2022/12/24 04:17:17;;;;;;;12.27;2.57;;;;;;;7.94;100.00;99959.28;6052715;28;20061;-75
2022/12/24 04:20:12;;;;;;;14.27;2.37;;;;;;;7.96;100.00;99959.97;6052666;28;20348;-75
2022/12/24 04:23:08;;;;;;;11.65;2.63;;;;;;;8.01;100.00;99968.28;6052376;28;20061;-76
2022/12/24 04:26:05;;;;;;;10.07;1.80;;;;;;;7.98;100.00;99968.56;6052413;28;20033;-78
2022/12/24 04:29:01;;;;;;;7.68;2.30;;;;;;;8.12;100.00;99985.72;6052490;28;20041;-76
2022/12/24 04:31:56;;;;;;;9.43;2.33;;;;;;;8.15;100.00;99991.53;6051760;28;20041;-76
2022/12/24 04:34:51;;;;;;;15.50;2.90;;;;;;;8.11;100.00;99987.53;6052588;28;20462;-76
2022/12/24 04:37:47;;;;;;;14.15;3.00;;;;;;;8.18;100.00;99978.03;6052626;28;20026;-78
2022/12/24 04:40:42;;;;;;;8.23;2.10;;;;;;;8.33;100.00;100000.34;6051566;28;20026;-76
2022/12/24 04:43:37;;;;;;;14.50;2.50;;;;;;;8.39;100.00;99998.94;6052680;28;20066;-77
2022/12/24 04:46:34;;;;;;;12.93;2.23;;;;;;;8.38;100.00;99992.81;6053078;28;20030;-75
2022/12/24 04:49:29;;;;;;;15.27;2.53;;;;;;;8.33;100.00;99976.59;6052765;28;20057;-75
2022/12/24 04:52:24;;;;;;;18.13;2.87;;;;;;;8.33;100.00;99984.50;6052328;28;20040;-75
2022/12/24 04:55:20;;;;;;;15.40;2.67;;;;;;;8.33;100.00;100005.63;6052397;28;20026;-75
2022/12/24 04:58:15;;;;;;;11.23;2.23;;;;;;;8.38;100.00;100019.22;6052211;28;20061;-76
2022/12/24 05:01:17;;;;;;;12.90;2.10;;;;;;;8.37;100.00;100019.34;6052383;28;20038;-75
2022/12/24 05:04:12;;;;;;;10.00;2.53;;;;;;;8.37;100.00;100025.47;6052002;28;20033;-75
2022/12/24 05:07:08;;;;;;;12.07;2.57;;;;;;;8.41;100.00;100026.03;6052320;28;20076;-76
2022/12/24 05:10:03;;;;;;;18.73;2.50;;;;;;;8.38;100.00;100029.78;6051796;28;20053;-75
2022/12/24 05:12:59;;;;;;;14.93;2.55;;;;;;;8.36;100.00;100044.97;6051007;28;20034;-75
2022/12/24 05:15:54;;;;;;;9.70;2.73;;;;;;;8.31;100.00;100023.44;6051505;28;20038;-75
2022/12/24 05:18:50;;;;;;;13.32;2.10;;;;;;;8.37;100.00;100022.00;6051816;28;20285;-74
2022/12/24 05:26:20;;;;;;;10.57;1.92;;;;;;;8.35;100.00;100038.00;6051539;28;20181;-75
2022/12/24 05:28:15;;;;;;;9.40;2.22;;;;;;;8.34;100.00;100054.03;6051453;28;20399;-75
2022/12/24 05:31:10;;;;;;;11.88;2.40;;;;;;;8.37;100.00;100062.47;6049311;28;20034;-75
2022/12/24 05:34:07;;;;;;;10.55;1.95;;;;;;;8.49;100.00;100056.97;6049484;28;20071;-75
2022/12/24 05:37:02;;;;;;;13.25;2.72;;;;;;;8.52;100.00;100075.19;6051070;28;20026;-75
2022/12/24 05:39:57;;;;;;;13.30;2.07;;;;;;;8.47;100.00;100074.78;6049133;28;20107;-75
2022/12/24 05:42:52;;;;;;;11.30;2.10;;;;;;;8.49;100.00;100086.88;6060401;28;20400;-75
2022/12/24 05:45:48;;;;;;;11.23;2.60;;;;;;;8.41;100.00;100080.66;6050154;28;20060;-75
2022/12/24 05:48:43;;;;;;;8.73;1.63;;;;;;;8.37;100.00;100072.19;6037716;28;20049;-74
2022/12/24 05:51:41;;;;;;;9.88;1.92;;;;;;;8.49;100.00;100083.38;6050870;28;20021;-77
2022/12/24 05:54:36;;;;;;;9.63;1.70;;;;;;;8.49;100.00;100096.59;6044332;28;20055;-74
2022/12/24 05:57:31;;;;;;;9.93;2.10;;;;;;;8.57;100.00;100112.56;6047670;28;20053;-75
2022/12/24 06:00:27;;;;;;;10.40;2.03;;;;;;;8.55;100.00;100109.22;6048546;28;20539;-75
2022/12/24 06:03:22;;;;;;;14.33;2.60;;;;;;;8.52;100.00;100117.44;6045607;28;20037;-74
2022/12/24 06:06:24;;;;;;;9.55;2.83;;;;;;;8.57;100.00;100112.56;6049017;28;20343;-74
2022/12/24 06:09:19;;;;;;;15.60;2.90;;;;;;;8.51;100.00;100107.84;6049323;28;20034;-74
2022/12/24 06:12:15;;;;;;;10.47;2.30;;;;;;;8.54;100.00;100123.41;6040931;28;20045;-75
2022/12/24 06:15:10;;;;;;;10.87;2.63;;;;;;;8.50;100.00;100116.78;6048974;28;20293;-75
2022/12/24 06:18:05;;;;;;;15.30;2.70;;;;;;;8.42;100.00;100121.97;6050259;28;20237;-74
2022/12/24 06:21:02;;;;;;;12.63;2.83;;;;;;;8.26;100.00;100131.31;6049634;28;20045;-74
2022/12/24 06:23:58;;;;;;;11.50;2.20;;;;;;;8.17;100.00;100129.56;6049304;28;20033;-74
2022/12/24 06:26:54;;;;;;;9.88;2.50;;;;;;;8.18;100.00;100139.13;6050167;28;20040;-74
2022/12/24 06:29:49;;;;;;;14.60;3.23;;;;;;;8.15;100.00;100134.13;6050313;28;20037;-74
2022/12/24 06:32:44;;;;;;;14.93;3.03;;;;;;;8.01;100.00;100116.13;6049385;28;20030;-73
2022/12/24 06:35:40;;;;;;;12.07;2.67;;;;;;;8.02;100.00;100128.34;6049566;28;20292;-73
2022/12/24 06:38:35;;;;;;;15.52;2.63;;;;;;;8.12;100.00;100141.53;6050039;28;20068;-74
2022/12/24 06:41:30;;;;;;;15.53;2.77;;;;;;;8.07;100.00;100141.94;6049974;28;20034;-74
2022/12/24 06:44:26;;;;;;;15.17;2.93;;;;;;;8.14;100.00;100153.59;6049430;28;20330;-74
2022/12/24 06:47:21;;;;;;;15.37;2.50;;;;;;;8.12;100.00;100152.94;6049915;28;20479;-74
2022/12/24 06:50:16;;;;;;;13.53;2.77;;;;;;;8.08;100.00;100143.63;6049682;28;20478;-74
2022/12/24 06:53:12;;;;;;;11.97;2.20;;;;;;;8.13;100.00;100162.50;6049051;28;20037;-74
2022/12/24 06:56:10;;;;;;;8.65;2.63;;;;;;;8.06;100.00;100160.56;6049531;28;20087;-74
2022/12/24 06:59:05;;;;;;;13.30;2.53;;;;;;;8.14;100.00;100182.66;6049811;28;20391;-75
2022/12/24 07:02:00;;;;;;;14.13;3.37;;;;;;;8.01;100.00;100163.66;6049843;28;20030;-73
2022/12/24 07:04:55;;;;;;;11.50;2.55;;;;;;;8.13;100.00;100185.41;6057240;28;20060;-74
2022/12/24 07:07:51;;;;;;;10.20;2.33;;;;;;;8.04;100.00;100187.13;6060776;28;20040;-74
2022/12/24 07:10:50;;;;;;;15.95;3.67;;;;;;;8.02;100.00;100180.31;6067150;28;20039;-74
2022/12/24 07:13:46;;;;;;;18.83;4.10;;;;;;;8.07;100.00;100192.09;6057332;28;20033;-74
2022/12/24 07:16:41;;;;;;;12.18;2.70;;;;;;;8.15;100.00;100194.84;6057221;28;20064;-74
2022/12/24 07:19:36;;;;;;;12.40;3.20;;;;;;;8.21;100.00;100212.78;6057651;28;20044;-74
2022/12/24 07:22:32;;;;;;;18.10;3.70;;;;;;;8.26;100.00;100225.59;6056778;28;20029;-74
2022/12/24 07:25:27;;;;;;;18.95;3.80;;;;;;;8.21;100.00;100214.59;6056984;28;20187;-74
2022/12/24 07:28:22;;;;;;;17.53;3.27;;;;;;;8.26;100.00;100222.94;6057527;28;20114;-74
2022/12/24 07:31:18;;;;;;;21.13;3.23;;;;;;;8.32;100.00;100235.56;6057309;28;20471;-74
2022/12/24 07:34:13;;;;;;;13.70;3.07;;;;;;;8.31;100.00;100232.13;6056400;28;20029;-74
2022/12/24 07:37:08;;;;;;;18.93;2.90;;;;;;;8.27;100.00;100235.19;6056937;28;20045;-74
2022/12/24 07:40:08;;;;;;;24.37;3.50;;;;;;;8.16;100.00;100236.16;6056821;28;20029;-74
2022/12/24 07:43:03;;;;;;;17.40;3.13;;;;;;;8.15;100.00;100250.31;6056610;28;20087;-74
2022/12/24 07:45:59;;;;;;;9.98;2.50;;;;;;;8.07;100.00;100252.84;6056882;28;20033;-73
2022/12/24 07:48:54;;;;;;;19.93;3.30;;;;;;;8.17;100.00;100285.38;6056920;28;20034;-73
2022/12/24 07:51:49;;;;;;;15.67;2.30;;;;;;;8.18;100.00;100273.00;6056618;28;20040;-74
2022/12/24 07:54:45;;;;;;;19.23;2.83;;;;;;;8.16;100.00;100259.91;6056194;28;20048;-74
2022/12/24 07:57:40;;;;;;;15.10;2.83;;;;;;;8.18;100.00;100288.84;6057119;28;20414;-74
2022/12/24 08:00:35;;;;;;;9.00;3.10;;;;;;;8.13;100.00;100298.97;6056835;28;20068;-72
2022/12/24 08:03:31;;;;;;;14.07;2.60;;;;;;;8.08;100.00;100294.13;6056151;28;20026;-74
2022/12/24 08:06:26;;;;;;;14.40;2.63;;;;;;;8.16;100.00;100312.75;6057277;28;20116;-74
2022/12/24 08:09:21;;;;;;;17.93;3.90;;;;;;;8.02;100.00;100302.59;6056471;28;20030;-73
2022/12/24 08:12:16;;;;;;;12.13;2.33;;;;;;;8.10;100.00;100325.69;6038695;28;20076;-74
2022/12/24 08:15:12;;;;;;;26.13;3.27;;;;;;;8.08;100.00;100314.41;6036284;28;20072;-74
2022/12/24 08:18:07;;;;;;;18.07;2.90;;;;;;;8.18;100.00;100339.03;6052941;28;20450;-74
2022/12/24 08:21:06;;;;;;;19.92;3.00;;;;;;;8.12;100.00;100329.00;6052955;28;20037;-74
2022/12/24 08:24:01;;;;;;;11.45;2.42;;;;;;;8.17;100.00;100327.63;6052012;28;20038;-74
2022/12/24 08:26:57;;;;;;;18.93;3.23;;;;;;;8.21;100.00;100331.63;6052451;28;20068;-73
2022/12/24 08:29:52;;;;;;;17.03;2.83;;;;;;;8.18;100.00;100331.91;6052766;28;20269;-74
2022/12/24 08:32:47;;;;;;;15.97;2.23;;;;;;;8.17;100.00;100338.19;6034610;28;20034;-74
2022/12/24 08:35:48;;;;;;;11.20;2.38;;;;;;;8.16;100.00;100348.88;6052615;28;20033;-74
2022/12/24 08:38:43;;;;;;;15.25;2.75;;;;;;;8.07;100.00;100358.47;6052369;28;20391;-74
2022/12/24 08:41:38;;;;;;;14.60;3.00;;;;;;;7.92;100.00;100348.44;6052595;28;20042;-74
2022/12/24 08:44:33;;;;;;;11.77;2.37;;;;;;;7.90;100.00;100348.59;6051308;28;20034;-74
2022/12/24 08:47:29;;;;;;;13.43;2.80;;;;;;;7.90;100.00;100351.25;6052429;28;20100;-73
2022/12/24 08:50:24;;;;;;;16.43;2.83;;;;;;;7.91;100.00;100365.28;6051771;28;20858;-74
2022/12/24 08:53:20;;;;;;;14.52;2.78;;;;;;;7.96;100.00;100371.81;6051462;28;20045;-73
2022/12/24 08:56:15;;;;;;;9.20;2.70;;;;;;;8.02;100.00;100376.53;6052119;28;20037;-74
2022/12/24 08:59:11;;;;;;;20.13;3.60;;;;;;;8.13;100.00;100389.59;6051899;28;20049;-74
2022/12/24 09:02:08;;;;;;;20.20;4.45;;;;;;;8.12;100.00;100382.66;6051531;28;20040;-74
2022/12/24 09:05:03;;;;;;;16.38;3.05;;;;;;;8.14;100.00;100385.16;6051946;28;20030;-74
2022/12/24 09:07:59;;;;;;;22.30;3.92;;;;;;;8.19;100.00;100393.50;6051745;28;20036;-74
2022/12/24 09:10:55;;;;;;;13.53;3.20;;;;;;;8.22;100.00;100394.06;6051937;28;20037;-74
2022/12/24 09:13:50;;;;;;;16.65;3.13;;;;;;;8.17;100.00;100385.72;6049959;28;20475;-74
2022/12/24 09:16:46;;;;;;;16.97;3.00;;;;;;;8.21;100.00;100405.59;6051417;28;20037;-74
2022/12/24 09:19:41;;;;;;;12.47;3.93;;;;;;;8.12;100.00;100397.66;6051466;28;20044;-75
2022/12/24 09:22:38;;;;;;;14.13;3.90;;;;;;;8.11;100.00;100404.75;6050752;28;20494;-75
2022/12/24 09:25:33;;;;;;;15.23;3.05;;;;;;;8.20;100.00;100424.22;6051102;28;20029;-74
2022/12/24 09:28:28;;;;;;;14.13;4.53;;;;;;;8.11;100.00;100404.75;6051441;28;20494;-75
2022/12/24 09:31:24;;;;;;;18.13;4.17;;;;;;;8.22;100.00;100427.56;6051310;28;20026;-74
2022/12/24 09:34:19;;;;;;;21.40;3.67;;;;;;;8.19;100.00;100431.31;6050665;28;20091;-75
2022/12/24 09:37:15;;;;;;;19.40;3.20;;;;;;;8.30;100.00;100425.94;6051315;28;20445;-74
2022/12/24 09:40:21;;;;;;;13.80;3.20;;;;;;;8.34;100.00;100437.06;6051226;28;20529;-74
2022/12/24 09:43:19;;;;;;;14.32;4.03;;;;;;;8.47;100.00;100444.69;6050422;28;20526;-74
2022/12/24 09:46:28;;;;;;;23.27;5.15;;;;;;;8.62;100.00;100443.28;6033519;28;20494;-74
2022/12/24 09:49:29;;;;;;;14.02;3.60;;;;;;;8.65;100.00;100443.00;6050499;28;20057;-74
2022/12/24 09:52:32;;;;;;;17.88;4.60;;;;;;;8.83;100.00;100452.72;6032952;28;20464;-74
2022/12/24 09:55:31;;;;;;;15.98;3.75;;;;;;;8.98;100.00;100447.84;6049471;28;20585;-75
2022/12/24 09:58:32;;;;;;;23.45;4.18;;;;;;;9.08;100.00;100456.59;6051050;28;20041;-75
2022/12/24 10:01:33;;;;;;;20.15;3.88;;;;;;;9.34;100.00;100473.53;6048234;28;20087;-74
2022/12/24 10:04:30;;;;;;;25.85;4.30;;;;;;;9.58;100.00;100468.56;6049988;28;20446;-75
2022/12/24 10:07:51;;;;;;;19.77;5.55;;;;;;;9.79;100.00;100478.06;6033149;28;20549;-75
2022/12/24 10:10:54;;;;;;;16.08;3.80;;;;;;;9.83;100.00;100456.47;6050761;28;20040;-74
2022/12/24 10:14:01;;;;;;;21.23;3.83;;;;;;;9.96;100.00;100469.34;6049775;28;20100;-74
2022/12/24 10:17:17;;;;;;;20.67;4.25;;;;;;;10.09;100.00;100477.75;6033027;28;20038;-74
2022/12/24 10:20:32;;;;;;;15.68;5.30;;;;;;;10.13;99.96;100471.22;6052333;28;20463;-75
2022/12/24 10:23:34;;;;;;;19.10;4.47;;;;;;;9.98;99.78;100484.09;6032317;28;20040;-74
2022/12/24 10:26:38;;;;;;;14.55;3.72;;;;;;;9.95;100.00;100472.97;6048971;28;20176;-75
2022/12/24 10:29:40;;;;;;;17.73;3.75;;;;;;;9.96;100.00;100490.53;6049183;28;20034;-75
2022/12/24 10:32:36;;;;;;;21.55;4.63;;;;;;;9.92;100.00;100495.28;6048095;28;20349;-74
2022/12/24 10:35:35;;;;;;;16.08;4.28;;;;;;;9.81;100.00;100487.53;6049459;28;20120;-74
2022/12/24 10:38:31;;;;;;;20.98;4.95;;;;;;;9.81;100.00;100497.31;6047617;28;20048;-74
2022/12/24 10:41:27;;;;;;;17.13;3.63;;;;;;;9.68;100.00;100494.13;6048644;28;20041;-74
2022/12/24 10:44:25;;;;;;;16.55;3.60;;;;;;;9.64;100.00;100493.63;6049450;28;20037;-74
2022/12/24 10:47:22;;;;;;;14.40;2.90;;;;;;;9.43;100.00;100499.09;6032229;28;20037;-74
2022/12/24 10:50:22;;;;;;;17.83;4.30;;;;;;;9.31;100.00;100500.28;6050069;28;20033;-74
2022/12/24 10:53:23;;;;;;;16.77;3.28;;;;;;;9.30;100.00;100514.47;6048996;28;20042;-74
2022/12/24 10:56:20;;;;;;;20.13;4.15;;;;;;;9.20;100.00;100503.06;6049283;28;20037;-74
2022/12/24 10:59:28;;;;;;;12.27;4.07;;;;;;;9.17;100.00;100508.66;6049961;28;20103;-74
2022/12/24 11:02:30;;;;;;;19.38;3.88;;;;;;;9.12;100.00;100500.31;6048920;28;20100;-75
2022/12/24 11:05:28;;;;;;;19.00;3.78;;;;;;;9.31;100.00;100513.50;6049596;28;20029;-74
2022/12/24 11:08:25;;;;;;;9.02;3.40;;;;;;;9.26;100.00;100502.50;6049452;28;20030;-74
2022/12/24 11:11:20;;;;;;;14.95;3.42;;;;;;;9.39;100.00;100518.06;6049489;28;20096;-75
2022/12/24 11:14:17;;;;;;;13.98;3.55;;;;;;;9.43;100.00;100514.97;6048890;28;20034;-74
2022/12/24 11:17:21;;;;;;;23.30;4.40;;;;;;;9.55;100.00;100519.13;6032016;28;20434;-75
2022/12/24 11:20:17;;;;;;;12.98;3.60;;;;;;;9.63;100.00;100514.94;6032003;28;20065;-75
2022/12/24 11:23:15;;;;;;;11.57;3.60;;;;;;;9.59;100.00;100512.56;6048582;28;20467;-74
2022/12/24 11:26:10;;;;;;;24.75;5.28;;;;;;;9.70;100.00;100531.91;6047945;28;20406;-75
2022/12/24 11:29:22;;;;;;;12.53;4.00;;;;;;;9.69;100.00;100535.53;6048901;28;20069;-74
2022/12/24 11:32:22;;;;;;;12.77;3.42;;;;;;;9.64;100.00;100521.91;6048731;28;20097;-75
2022/12/24 11:35:22;;;;;;;13.45;3.15;;;;;;;9.73;100.00;100519.19;6049164;28;20041;-74
2022/12/24 11:38:21;;;;;;;13.48;3.33;;;;;;;9.68;100.00;100531.19;6049255;28;20030;-74
2022/12/24 11:41:16;;;;;;;14.55;3.75;;;;;;;9.53;100.00;100523.75;6049277;28;20037;-75
2022/12/24 11:44:11;;;;;;;15.65;3.70;;;;;;;9.51;100.00;100533.63;6047976;28;20080;-74
2022/12/24 11:47:12;;;;;;;12.07;3.30;;;;;;;9.34;100.00;100534.38;6048085;28;20422;-74
2022/12/24 11:50:36;;;;;;;19.75;3.90;;;;;;;9.34;100.00;100541.47;6052241;28;20288;-75
2022/12/24 11:53:43;;;;;;;17.10;3.45;;;;;;;9.30;100.00;100538.28;6035726;28;20022;-74
2022/12/24 11:56:48;;;;;;;12.32;3.28;;;;;;;9.27;100.00;100530.63;6053427;28;20466;-75
2022/12/24 11:59:46;;;;;;;12.73;3.70;;;;;;;9.24;100.00;100530.91;6051710;28;20038;-75
2022/12/24 12:02:45;;;;;;;12.07;3.85;;;;;;;9.19;100.00;100538.44;6051427;28;20036;-75
2022/12/24 12:05:40;;;;;;;13.02;2.88;;;;;;;9.12;100.00;100529.41;6052357;28;20034;-75
2022/12/24 12:08:36;;;;;;;10.00;2.87;;;;;;;9.19;100.00;100532.31;6053002;28;20057;-74
2022/12/24 12:11:33;;;;;;;13.88;3.28;;;;;;;9.24;100.00;100541.47;6053399;28;20109;-75
2022/12/24 12:14:34;;;;;;;12.77;2.70;;;;;;;9.16;100.00;100538.72;6050942;28;20459;-75
2022/12/24 12:17:36;;;;;;;12.15;2.78;;;;;;;9.15;100.00;100542.34;6052735;28;20083;-74
2022/12/24 12:20:57;;;;;;;14.10;3.47;;;;;;;9.14;100.00;100542.47;6051787;28;20189;-75
2022/12/24 12:24:14;;;;;;;10.48;3.78;;;;;;;9.17;100.00;100550.97;6042955;28;20049;-75
2022/12/24 12:27:18;;;;;;;9.27;2.92;;;;;;;9.11;100.00;100550.69;6035202;28;20040;-74
2022/12/24 12:30:19;;;;;;;13.98;3.13;;;;;;;9.02;100.00;100549.75;6035285;28;20026;-75
2022/12/24 12:33:23;;;;;;;12.27;3.90;;;;;;;8.99;100.00;100552.66;6051794;28;20033;-74
2022/12/24 12:36:27;;;;;;;13.18;3.15;;;;;;;8.85;100.00;100537.22;6052607;28;20117;-74
2022/12/24 12:39:23;;;;;;;12.05;3.60;;;;;;;9.01;100.00;100556.00;6051595;28;20521;-74
2022/12/24 12:42:34;;;;;;;11.50;2.67;;;;;;;9.07;100.00;100573.97;6051767;28;20038;-75
2022/12/24 12:45:35;;;;;;;8.13;3.22;;;;;;;9.19;100.00;100574.63;6035067;28;20034;-74
2022/12/24 12:48:39;;;;;;;11.75;3.28;;;;;;;9.21;100.00;100568.25;6036132;28;20486;-75
2022/12/24 12:51:42;;;;;;;5.82;2.63;;;;;;;9.20;100.00;100586.91;6052357;28;20467;-75
2022/12/24 12:55:05;;;;;;;10.68;3.15;;;;;;;9.13;100.00;100581.31;6051691;28;20041;-76
2022/12/24 12:58:05;;;;;;;8.93;3.20;;;;;;;9.13;100.00;100606.97;6051027;28;20025;-74
2022/12/24 13:01:16;;;;;;;7.57;2.20;;;;;;;9.07;100.00;100607.50;6049991;28;20391;-74
2022/12/24 13:04:53;;;;;;;6.93;2.10;;;;;;;9.01;100.00;100608.06;6033555;28;20487;-74
2022/12/24 13:08:10;;;;;;;9.32;1.80;;;;;;;8.94;100.00;100605.97;6051381;28;20033;-74
2022/12/24 13:11:39;;;;;;;8.80;1.85;;;;;;;8.84;100.00;100614.84;6051827;28;20372;-75
2022/12/24 13:14:59;;;;;;;5.22;1.80;;;;;;;8.53;100.00;100595.63;6051148;28;20034;-74
2022/12/24 13:18:20;;;;;;;5.47;1.70;;;;;;;8.43;100.00;100602.66;6051447;28;20030;-73
2022/12/24 13:21:18;;;;;;;6.55;2.83;;;;;;;8.34;100.00;100604.31;6054330;28;20034;-75
2022/12/24 13:24:20;;;;;;;4.72;1.60;;;;;;;8.25;100.00;100602.47;6049692;28;20453;-75
2022/12/24 13:27:31;;;;;;;9.27;2.08;;;;;;;8.28;100.00;100626.00;6050408;28;20509;-75
2022/12/24 13:30:37;;;;;;;12.57;3.25;;;;;;;8.32;100.00;100627.38;6034211;28;20493;-77
2022/12/24 13:33:35;;;;;;;10.05;2.90;;;;;;;8.38;100.00;100629.50;6051470;28;20056;-75
2022/12/24 13:37:13;;;;;;;8.35;2.38;;;;;;;8.42;100.00;100632.72;6052120;28;20029;-76
2022/12/24 13:40:23;;;;;;;9.55;2.33;;;;;;;8.33;100.00;100637.00;6041369;28;20053;-77
2022/12/24 13:43:19;;;;;;;10.35;1.92;;;;;;;8.28;100.00;100633.09;6051548;28;20036;-75
2022/12/24 13:46:45;;;;;;;8.47;2.57;;;;;;;8.32;100.00;100640.59;6034336;28;20029;-76
2022/12/24 13:49:43;;;;;;;10.23;2.42;;;;;;;8.33;100.00;100644.09;6040831;28;20025;-74
2022/12/24 13:52:49;;;;;;;9.45;2.65;;;;;;;8.28;100.00;100626.00;6034350;28;20087;-77
2022/12/24 13:55:56;;;;;;;9.60;3.88;;;;;;;8.29;100.00;100635.59;6050991;28;20502;-75